createdAt,value
2022-11-12T00:02:12.575Z,7.20
2022-11-12T00:04:42.967Z,9.10
2022-11-12T00:07:13.428Z,7.95
2022-11-12T00:09:43.914Z,8.63
2022-11-12T00:12:14.386Z,6.92
2022-11-12T00:14:44.762Z,8.13
2022-11-12T00:17:15.237Z,7.63
2022-11-12T00:19:45.568Z,9.25
2022-11-12T00:22:16.477Z,7.33
2022-11-12T00:24:46.889Z,8.63
2022-11-12T00:27:17.601Z,8.28
2022-11-12T00:29:48.122Z,6.42
2022-11-12T00:32:19.760Z,7.40
2022-11-12T00:34:50.103Z,6.43
2022-11-12T00:37:22.233Z,7.50
2022-11-12T00:39:52.631Z,7.75
2022-11-12T00:42:23.078Z,7.87
2022-11-12T00:44:53.429Z,7.87
2022-11-12T00:47:25.180Z,7.47
2022-11-12T00:49:55.683Z,8.18
2022-11-12T00:52:26.045Z,7.22
2022-11-12T00:54:56.387Z,7.05
2022-11-12T00:57:26.733Z,8.68
2022-11-12T00:59:57.216Z,6.28
2022-11-12T01:02:27.685Z,8.83
2022-11-12T01:04:58.074Z,6.70
2022-11-12T01:07:29.147Z,9.03
2022-11-12T01:09:59.562Z,7.90
2022-11-12T01:12:31.913Z,8.85
2022-11-12T01:15:02.667Z,7.30
2022-11-12T01:17:33.332Z,7.07
2022-11-12T01:20:03.958Z,7.67
2022-11-12T01:22:34.315Z,9.50
2022-11-12T01:25:05.117Z,9.47
2022-11-12T01:27:35.747Z,7.13
2022-11-12T01:30:06.805Z,6.95
2022-11-12T01:32:38.111Z,7.62
2022-11-12T01:35:08.764Z,7.30
2022-11-12T01:37:39.149Z,7.70
2022-11-12T01:40:10.810Z,5.20
2022-11-12T01:42:41.237Z,9.23
2022-11-12T01:45:16.330Z,7.67
2022-11-12T01:47:49.498Z,7.22
2022-11-12T01:50:32.341Z,6.65
2022-11-12T01:53:08.632Z,5.80
2022-11-12T01:55:39.469Z,5.60
2022-11-12T01:58:12.846Z,7.47
2022-11-12T02:00:43.889Z,6.22
2022-11-12T02:03:22.975Z,5.70
2022-11-12T02:05:56.430Z,6.33
2022-11-12T02:08:29.009Z,5.78
2022-11-12T02:10:59.462Z,5.62
2022-11-12T02:13:47.778Z,5.28
2022-11-12T02:16:18.237Z,5.58
2022-11-12T02:18:48.593Z,5.93
2022-11-12T02:21:23.917Z,6.53
2022-11-12T02:24:05.598Z,7.13
2022-11-12T02:26:38.602Z,7.97
2022-11-12T02:29:09.581Z,6.23
2022-11-12T02:31:40.128Z,6.47
2022-11-12T02:34:10.519Z,5.30
2022-11-12T02:36:40.964Z,5.85
2022-11-12T02:39:11.385Z,6.72
2022-11-12T02:41:42.042Z,5.77
2022-11-12T02:44:12.449Z,8.08
2022-11-12T02:46:42.787Z,6.30
2022-11-12T02:49:13.166Z,5.40
2022-11-12T02:51:43.707Z,6.73
2022-11-12T02:54:14.090Z,6.25
2022-11-12T02:56:44.468Z,7.33
2022-11-12T02:59:14.854Z,7.33
2022-11-12T03:01:45.089Z,6.53
2022-11-12T03:04:15.779Z,7.25
2022-11-12T03:06:46.257Z,5.57
2022-11-12T03:09:16.779Z,6.05
2022-11-12T03:11:47.087Z,6.22
2022-11-12T03:14:17.544Z,5.20
2022-11-12T03:16:47.958Z,5.73
2022-11-12T03:19:18.411Z,7.55
2022-11-12T03:21:48.833Z,5.20
2022-11-12T03:24:19.326Z,9.03
2022-11-12T03:26:49.705Z,6.13
2022-11-12T03:29:20.146Z,6.20
2022-11-12T03:31:50.518Z,5.23
2022-11-12T03:34:20.905Z,6.15
2022-11-12T03:36:51.266Z,6.15
2022-11-12T03:39:21.641Z,6.17
2022-11-12T03:41:52.023Z,4.85
2022-11-12T03:44:22.381Z,5.95
2022-11-12T03:46:52.680Z,5.95
2022-11-12T03:49:23.093Z,5.22
2022-11-12T03:51:53.467Z,5.20
2022-11-12T03:54:23.885Z,5.10
2022-11-12T03:56:54.253Z,4.78
2022-11-12T03:59:24.762Z,5.25
2022-11-12T04:01:55.157Z,4.80
2022-11-12T04:04:27.336Z,6.47
2022-11-12T04:07:15.586Z,4.97
2022-11-12T04:09:45.917Z,4.83
2022-11-12T04:12:34.109Z,6.50
2022-11-12T04:15:04.855Z,8.88
2022-11-12T04:17:53.422Z,7.70
2022-11-12T04:20:42.007Z,7.62
2022-11-12T04:23:12.386Z,5.75
2022-11-12T04:26:01.172Z,4.83
2022-11-12T04:28:31.557Z,5.50
2022-11-12T04:31:01.968Z,7.20
2022-11-12T04:33:32.526Z,6.22
2022-11-12T04:36:02.988Z,6.85
2022-11-12T04:38:33.449Z,5.47
2022-11-12T04:41:21.732Z,5.05
2022-11-12T04:44:10.417Z,5.03
2022-11-12T04:46:40.731Z,7.70
2022-11-12T04:49:11.158Z,7.80
2022-11-12T04:51:59.572Z,5.90
2022-11-12T04:54:29.975Z,6.25
2022-11-12T04:57:01.076Z,5.90
2022-11-12T04:59:31.481Z,5.80
2022-11-12T05:02:01.793Z,7.95
2022-11-12T05:04:32.205Z,6.17
2022-11-12T05:07:03.064Z,5.42
2022-11-12T05:09:33.695Z,6.10
2022-11-12T05:12:04.501Z,6.90
2022-11-12T05:14:34.928Z,6.40
2022-11-12T05:17:05.938Z,6.37
2022-11-12T05:19:36.295Z,6.37
2022-11-12T05:22:07.378Z,5.70
2022-11-12T05:24:43.050Z,7.07
2022-11-12T05:27:16.404Z,7.70
2022-11-12T05:29:47.453Z,6.03
2022-11-12T05:32:18.737Z,4.80
2022-11-12T05:34:49.117Z,5.90
2022-11-12T05:37:19.911Z,6.03
2022-11-12T05:39:50.314Z,8.28
2022-11-12T05:42:20.669Z,8.60
2022-11-12T05:44:51.031Z,7.47
2022-11-12T05:47:21.367Z,10.72
2022-11-12T05:49:51.824Z,6.07
2022-11-12T05:52:22.199Z,6.53
2022-11-12T05:54:52.498Z,5.53
2022-11-12T05:57:22.855Z,5.63
2022-11-12T05:59:53.258Z,7.03
2022-11-12T06:02:23.670Z,5.60
2022-11-12T06:04:54.084Z,6.37
2022-11-12T06:07:24.456Z,5.97
2022-11-12T06:09:54.887Z,9.77
2022-11-12T06:12:25.257Z,6.07
2022-11-12T06:14:55.620Z,6.23
2022-11-12T06:17:26.001Z,7.03
2022-11-12T06:19:56.378Z,7.47
2022-11-12T06:22:26.760Z,5.97
2022-11-12T06:24:57.226Z,6.20
2022-11-12T06:27:27.615Z,7.28
2022-11-12T06:29:58.059Z,6.53
2022-11-12T06:32:28.553Z,5.78
2022-11-12T06:34:58.930Z,6.97
2022-11-12T06:37:29.330Z,6.63
2022-11-12T06:39:59.699Z,7.27
2022-11-12T06:42:30.119Z,6.35
2022-11-12T06:45:00.563Z,8.30
2022-11-12T06:47:31.122Z,6.83
2022-11-12T06:50:02.346Z,9.03
2022-11-12T06:52:32.747Z,8.47
2022-11-12T06:55:03.120Z,7.35
2022-11-12T06:57:33.893Z,8.20
2022-11-12T07:00:04.469Z,5.67
2022-11-12T07:02:34.843Z,7.58
2022-11-12T07:05:05.482Z,7.63
2022-11-12T07:07:36.221Z,8.50
2022-11-12T07:10:07.422Z,7.12
2022-11-12T07:12:37.804Z,6.00
2022-11-12T07:15:08.944Z,6.40
2022-11-12T07:17:39.338Z,8.07
2022-11-12T07:20:11.100Z,9.00
2022-11-12T07:22:41.472Z,6.58
2022-11-12T07:25:11.872Z,8.65
2022-11-12T07:27:42.547Z,8.25
2022-11-12T07:30:13.469Z,10.95
2022-11-12T07:32:48.306Z,7.45
2022-11-12T07:35:15.976Z,11.38
2022-11-12T07:37:46.478Z,8.97
2022-11-12T07:40:17.338Z,9.65
2022-11-12T07:42:47.704Z,9.93
2022-11-12T07:45:18.184Z,8.35
2022-11-12T07:47:48.559Z,9.60
2022-11-12T07:50:18.917Z,8.28
2022-11-12T07:52:49.233Z,9.78
2022-11-12T07:55:19.679Z,7.97
2022-11-12T07:57:49.989Z,8.10
2022-11-12T08:00:20.633Z,9.60
2022-11-12T08:02:51.121Z,8.00
2022-11-12T08:05:21.798Z,7.42
2022-11-12T08:07:52.423Z,9.68
2022-11-12T08:10:23.145Z,9.53
2022-11-12T08:12:55.114Z,9.88
2022-11-12T08:15:25.737Z,8.53
2022-11-12T08:17:56.291Z,9.10
2022-11-12T08:20:27.084Z,9.95
2022-11-12T08:23:02.034Z,9.03
2022-11-12T08:25:32.451Z,8.65
2022-11-12T08:28:02.993Z,10.20
2022-11-12T08:30:33.816Z,7.53
2022-11-12T08:33:06.935Z,9.25
2022-11-12T08:35:39.512Z,9.93
2022-11-12T08:38:10.836Z,10.98
2022-11-12T08:40:41.756Z,11.40
2022-11-12T08:43:12.305Z,12.88
2022-11-12T08:45:43.287Z,9.10
2022-11-12T08:48:15.259Z,10.72
2022-11-12T08:50:45.648Z,11.83
2022-11-12T08:53:16.052Z,10.23
2022-11-12T08:55:46.477Z,10.10
2022-11-12T08:58:16.864Z,12.10
2022-11-12T09:00:47.848Z,14.45
2022-11-12T09:03:20.666Z,12.13
2022-11-12T09:05:52.038Z,14.53
2022-11-12T09:08:25.983Z,14.70
2022-11-12T09:10:59.225Z,16.82
2022-11-12T09:13:30.013Z,11.85
2022-11-12T09:16:06.692Z,11.93
2022-11-12T09:18:37.413Z,15.75
2022-11-12T09:21:12.895Z,14.05
2022-11-12T09:23:43.320Z,13.85
2022-11-12T09:26:13.811Z,16.42
2022-11-12T09:28:44.329Z,12.98
2022-11-12T09:31:14.717Z,15.15
2022-11-12T09:33:45.023Z,15.48
2022-11-12T09:36:16.993Z,13.50
2022-11-12T09:38:47.373Z,13.40
2022-11-12T09:41:26.761Z,14.00
2022-11-12T09:44:00.253Z,13.70
2022-11-12T09:46:33.732Z,12.65
2022-11-12T09:49:22.162Z,14.03
2022-11-12T09:51:55.750Z,15.75
2022-11-12T09:54:35.628Z,14.55
2022-11-12T09:57:08.584Z,15.15
2022-11-12T09:59:43.030Z,14.00
2022-11-12T10:02:23.511Z,14.98
2022-11-12T10:05:02.392Z,14.45
2022-11-12T10:07:55.538Z,14.58
2022-11-12T10:10:29.046Z,14.63
2022-11-12T10:13:08.680Z,15.08
2022-11-12T10:16:30.366Z,14.98
2022-11-12T10:19:12.927Z,13.80
2022-11-12T10:21:55.072Z,15.50
2022-11-12T10:24:26.904Z,16.65
2022-11-12T10:26:58.573Z,15.38
2022-11-12T10:29:50.350Z,14.40
2022-11-12T10:32:20.901Z,16.57
2022-11-12T10:34:51.427Z,16.10
2022-11-12T10:37:42.307Z,16.10
2022-11-12T10:40:24.567Z,14.60
2022-11-12T10:43:03.739Z,18.85
2022-11-12T10:45:34.337Z,15.85
2022-11-12T10:48:05.001Z,16.52
2022-11-12T10:50:43.483Z,14.87
2022-11-12T10:53:14.380Z,15.38
2022-11-12T10:56:00.217Z,15.68
2022-11-12T10:58:30.991Z,15.32
2022-11-12T11:01:04.236Z,16.25
2022-11-12T11:03:49.354Z,13.08
2022-11-12T11:06:23.043Z,13.45
2022-11-12T11:09:11.327Z,13.18
2022-11-12T11:11:50.626Z,12.53
2022-11-12T11:14:32.881Z,16.70
2022-11-12T11:17:08.630Z,15.72
2022-11-12T11:19:42.412Z,15.50
2022-11-12T11:22:18.787Z,13.98
2022-11-12T11:24:52.207Z,12.45
2022-11-12T11:27:51.329Z,12.73
2022-11-12T11:30:22.994Z,12.95
2022-11-12T11:33:08.372Z,10.65
2022-11-12T11:36:05.693Z,12.13
2022-11-12T11:39:06.528Z,10.68
2022-11-12T11:41:59.975Z,11.93
2022-11-12T11:44:52.777Z,10.78
2022-11-12T11:47:38.652Z,11.00
2022-11-12T11:50:01.334Z,9.60
2022-11-12T11:52:40.652Z,11.28
2022-11-12T11:55:16.588Z,14.43
2022-11-12T11:58:04.947Z,11.08
2022-11-12T12:00:58.510Z,11.48
2022-11-12T12:03:34.603Z,13.18
2022-11-12T12:06:22.964Z,12.93
2022-11-12T12:09:20.703Z,11.08
2022-11-12T12:11:59.876Z,10.25
2022-11-12T12:14:51.161Z,12.50
2022-11-12T12:17:39.577Z,11.73
2022-11-12T12:20:18.989Z,11.15
2022-11-12T12:22:58.104Z,12.13
2022-11-12T12:25:39.837Z,9.08
2022-11-12T12:28:16.034Z,10.68
2022-11-12T12:30:49.431Z,7.90
2022-11-12T12:33:39.691Z,9.70
2022-11-12T12:36:13.589Z,9.38
2022-11-12T12:39:03.404Z,11.22
2022-11-12T12:41:45.403Z,9.38
2022-11-12T12:44:15.837Z,14.83
2022-11-12T12:46:49.240Z,10.10
2022-11-12T12:49:22.691Z,11.05
2022-11-12T12:51:55.959Z,10.23
2022-11-12T12:54:40.516Z,14.63
2022-11-12T12:57:35.040Z,11.90
2022-11-12T13:00:34.375Z,11.90
2022-11-12T13:03:05.271Z,10.60
2022-11-12T13:05:42.770Z,11.60
2022-11-12T13:08:21.669Z,9.88
2022-11-12T13:10:52.533Z,12.05
2022-11-12T13:13:31.745Z,8.93
2022-11-12T13:16:00.590Z,10.23
2022-11-12T13:18:43.171Z,13.72
2022-11-12T13:21:21.885Z,11.88
2022-11-12T13:24:07.262Z,10.63
2022-11-12T13:26:46.856Z,9.53
2022-11-12T13:29:29.534Z,9.05
2022-11-12T13:32:29.396Z,13.13
2022-11-12T13:35:22.881Z,11.78
2022-11-12T13:38:05.828Z,10.05
2022-11-12T13:41:00.708Z,10.60
2022-11-12T13:43:39.463Z,8.28
2022-11-12T13:46:12.931Z,11.88
2022-11-12T13:48:49.786Z,9.98
2022-11-12T13:51:23.229Z,10.25
2022-11-12T13:53:53.628Z,11.70
2022-11-12T13:56:32.893Z,10.90
2022-11-12T13:59:18.273Z,12.20
2022-11-12T14:01:50.778Z,10.68
2022-11-12T14:04:24.423Z,15.58
2022-11-12T14:07:06.756Z,14.90
2022-11-12T14:09:43.506Z,10.45
2022-11-12T14:12:41.114Z,10.53
2022-11-12T14:15:29.822Z,8.53
2022-11-12T14:18:15.084Z,11.48
2022-11-12T14:20:46.108Z,10.95
2022-11-12T14:23:24.500Z,10.30
2022-11-12T14:25:54.159Z,10.32
2022-11-12T14:28:33.244Z,10.65
2022-11-12T14:31:05.202Z,12.00
2022-11-12T14:33:35.783Z,8.83
2022-11-12T14:36:09.395Z,9.65
2022-11-12T14:38:43.205Z,10.00
2022-11-12T14:41:29.133Z,11.63
2022-11-12T14:44:12.592Z,10.10
2022-11-12T14:46:46.389Z,11.15
2022-11-12T14:49:22.574Z,13.60
2022-11-12T14:51:55.564Z,14.83
2022-11-12T14:54:35.042Z,13.20
2022-11-12T14:57:06.161Z,10.85
2022-11-12T14:59:37.414Z,12.47
2022-11-12T15:02:36.872Z,11.43
2022-11-12T15:04:54.393Z,12.63
2022-11-12T15:07:29.870Z,12.93
2022-11-12T15:10:01.340Z,14.25
2022-11-12T15:12:34.376Z,9.83
2022-11-12T15:15:20.943Z,12.45
2022-11-12T15:17:59.736Z,10.38
2022-11-12T15:20:30.688Z,10.38
2022-11-12T15:23:01.296Z,10.88
2022-11-12T15:25:32.584Z,11.68
2022-11-12T15:28:23.544Z,13.03
2022-11-12T15:31:20.813Z,11.45
2022-11-12T15:33:51.226Z,13.45
2022-11-12T15:36:24.197Z,11.78
2022-11-12T15:38:55.557Z,12.37
2022-11-12T15:41:31.308Z,14.25
2022-11-12T15:44:02.037Z,12.65
2022-11-12T15:46:33.025Z,16.60
2022-11-12T15:49:03.479Z,14.65
2022-11-12T15:51:33.893Z,15.65
2022-11-12T15:54:04.430Z,15.72
2022-11-12T15:56:35.052Z,19.12
2022-11-12T15:59:05.776Z,15.35
2022-11-12T16:01:36.187Z,15.98
2022-11-12T16:04:06.585Z,16.07
2022-11-12T16:06:37.054Z,15.90
2022-11-12T16:09:07.391Z,16.42
2022-11-12T16:11:37.873Z,15.75
2022-11-12T16:14:14.054Z,16.57
2022-11-12T16:16:44.461Z,16.12
2022-11-12T16:19:16.653Z,18.05
2022-11-12T16:21:47.008Z,17.85
2022-11-12T16:24:17.474Z,17.62
2022-11-12T16:26:47.950Z,22.37
2022-11-12T16:29:18.443Z,18.77
2022-11-12T16:31:48.944Z,23.02
2022-11-12T16:34:19.350Z,18.75
2022-11-12T16:36:50.026Z,19.00
2022-11-12T16:39:20.391Z,23.12
2022-11-12T16:41:51.017Z,21.30
2022-11-12T16:44:21.456Z,19.95
2022-11-12T16:46:51.862Z,24.80
2022-11-12T16:49:22.283Z,21.48
2022-11-12T16:51:52.658Z,21.70
2022-11-12T16:54:23.056Z,26.48
2022-11-12T16:56:53.462Z,26.40
2022-11-12T16:59:23.949Z,26.80
2022-11-12T17:01:54.386Z,30.15
2022-11-12T17:04:27.916Z,33.55
2022-11-12T17:06:58.284Z,32.48
2022-11-12T17:09:28.960Z,32.38
2022-11-12T17:11:59.466Z,32.70
2022-11-12T17:14:29.792Z,31.42
2022-11-12T17:17:00.440Z,29.72
2022-11-12T17:19:30.858Z,28.60
2022-11-12T17:22:01.380Z,29.63
2022-11-12T17:24:31.835Z,29.52
2022-11-12T17:27:02.365Z,32.80
2022-11-12T17:29:32.814Z,29.48
2022-11-12T17:32:03.864Z,31.77
2022-11-12T17:34:34.290Z,29.80
2022-11-12T17:37:04.812Z,27.07
2022-11-12T17:39:35.412Z,30.02
2022-11-12T17:42:08.981Z,28.00
2022-11-12T17:44:39.295Z,28.35
2022-11-12T17:47:12.933Z,28.12
2022-11-12T17:49:43.546Z,30.55
2022-11-12T17:52:15.430Z,24.45
2022-11-12T17:54:45.764Z,26.93
2022-11-12T17:57:16.354Z,27.70
2022-11-12T17:59:46.743Z,22.82
2022-11-12T18:02:17.125Z,24.90
2022-11-12T18:04:47.557Z,26.15
2022-11-12T18:07:18.054Z,23.10
2022-11-12T18:09:48.453Z,24.37
2022-11-12T18:12:18.844Z,28.95
2022-11-12T18:14:49.235Z,23.83
2022-11-12T18:17:19.577Z,26.15
2022-11-12T18:19:49.897Z,24.12
2022-11-12T18:22:20.718Z,24.53
2022-11-12T18:24:52.703Z,24.18
2022-11-12T18:27:23.245Z,24.35
2022-11-12T18:29:53.841Z,25.50
2022-11-12T18:32:24.236Z,26.45
2022-11-12T18:34:54.685Z,26.80
2022-11-12T18:37:25.165Z,23.57
2022-11-12T18:39:56.159Z,28.20
2022-11-12T18:42:26.541Z,24.52
2022-11-12T18:44:56.936Z,22.15
2022-11-12T18:47:27.311Z,24.98
2022-11-12T18:50:02.943Z,27.13
2022-11-12T18:52:31.878Z,24.35
2022-11-12T18:55:03.026Z,27.25
2022-11-12T18:57:33.483Z,26.37
2022-11-12T19:00:04.742Z,27.65
2022-11-12T19:02:35.238Z,31.90
2022-11-12T19:05:06.039Z,27.35
2022-11-12T19:07:36.379Z,25.65
2022-11-12T19:10:13.506Z,28.23
2022-11-12T19:12:42.360Z,28.55
2022-11-12T19:15:12.953Z,27.27
2022-11-12T19:17:43.889Z,29.35
2022-11-12T19:20:14.252Z,29.60
2022-11-12T19:22:44.688Z,28.45
2022-11-12T19:25:15.233Z,28.90
2022-11-12T19:27:45.632Z,28.42
2022-11-12T19:30:16.812Z,28.60
2022-11-12T19:32:47.313Z,28.60
2022-11-12T19:35:17.764Z,28.90
2022-11-12T19:37:48.423Z,28.23
2022-11-12T19:40:19.220Z,32.38
2022-11-12T19:42:49.821Z,31.50
2022-11-12T19:45:20.342Z,29.27
2022-11-12T19:47:52.358Z,32.40
2022-11-12T19:50:24.813Z,30.97
2022-11-12T19:52:55.131Z,37.80
2022-11-12T19:55:27.251Z,34.78
2022-11-12T19:57:57.935Z,36.50
2022-11-12T20:00:28.330Z,34.23
2022-11-12T20:02:59.672Z,36.97
2022-11-12T20:05:31.288Z,32.67
2022-11-12T20:08:01.885Z,38.78
2022-11-12T20:10:32.265Z,50.28
2022-11-12T20:13:03.327Z,39.53
2022-11-12T20:15:33.720Z,39.00
2022-11-12T20:18:04.187Z,42.50
2022-11-12T20:20:34.606Z,39.00
2022-11-12T20:23:05.065Z,38.67
2022-11-12T20:25:35.425Z,38.05
2022-11-12T20:28:06.082Z,38.88
2022-11-12T20:30:36.488Z,36.53
2022-11-12T20:33:06.973Z,38.80
2022-11-12T20:35:56.668Z,32.75
2022-11-12T20:38:30.159Z,33.98
2022-11-12T20:41:02.755Z,34.92
2022-11-12T20:43:35.721Z,31.87
2022-11-12T20:46:06.284Z,34.58
2022-11-12T20:48:42.810Z,33.88
2022-11-12T20:51:24.317Z,35.38
2022-11-12T20:53:56.042Z,34.37
2022-11-12T20:56:26.868Z,37.67
2022-11-12T20:58:58.000Z,34.92
2022-11-12T21:01:30.474Z,35.05
2022-11-12T21:04:00.995Z,35.15
2022-11-12T21:06:31.411Z,35.87
2022-11-12T21:09:01.911Z,38.70
2022-11-12T21:11:32.386Z,38.85
2022-11-12T21:14:02.728Z,40.33
2022-11-12T21:16:33.113Z,36.80
2022-11-12T21:19:06.256Z,36.42
2022-11-12T21:21:37.088Z,38.38
2022-11-12T21:24:08.028Z,37.03
2022-11-12T21:26:38.413Z,35.05
2022-11-12T21:29:08.751Z,41.73
2022-11-12T21:31:39.140Z,37.80
2022-11-12T21:34:11.218Z,38.92
2022-11-12T21:36:41.683Z,38.45
2022-11-12T21:39:12.123Z,42.60
2022-11-12T21:41:42.587Z,39.63
2022-11-12T21:44:12.996Z,41.33
2022-11-12T21:46:43.383Z,42.37
2022-11-12T21:49:13.806Z,39.70
2022-11-12T21:51:44.216Z,41.97
2022-11-12T21:54:15.300Z,43.30
2022-11-12T21:56:45.671Z,40.58
2022-11-12T21:59:16.075Z,38.55
2022-11-12T22:01:46.547Z,40.85
2022-11-12T22:04:18.415Z,44.17
2022-11-12T22:06:49.183Z,39.60
2022-11-12T22:09:19.778Z,40.13
2022-11-12T22:11:50.278Z,41.20
2022-11-12T22:14:20.727Z,42.67
2022-11-12T22:16:51.447Z,43.87
2022-11-12T22:19:23.641Z,42.23
2022-11-12T22:21:54.035Z,42.78
2022-11-12T22:24:24.697Z,43.70
2022-11-12T22:26:55.421Z,41.83
2022-11-12T22:29:25.867Z,41.87
2022-11-12T22:31:56.254Z,39.48
2022-11-12T22:34:26.647Z,41.10
2022-11-12T22:36:56.948Z,41.45
2022-11-12T22:39:27.348Z,38.50
2022-11-12T22:41:57.643Z,41.87
2022-11-12T22:44:29.011Z,41.60
2022-11-12T22:46:59.377Z,39.90
2022-11-12T22:49:30.219Z,35.35
2022-11-12T22:52:00.599Z,34.08
2022-11-12T22:54:31.052Z,35.80
2022-11-12T22:57:01.474Z,38.85
2022-11-12T22:59:31.857Z,33.40
2022-11-12T23:02:02.271Z,36.03
2022-11-12T23:04:32.704Z,36.33
2022-11-12T23:07:03.170Z,37.33
2022-11-12T23:09:33.852Z,33.65
2022-11-12T23:12:04.450Z,31.80
2022-11-12T23:14:35.296Z,33.23
2022-11-12T23:17:05.594Z,33.85
2022-11-12T23:19:35.991Z,30.30
2022-11-12T23:22:08.043Z,33.28
2022-11-12T23:24:38.495Z,34.30
2022-11-12T23:27:08.975Z,33.20
2022-11-12T23:29:39.382Z,33.80
2022-11-12T23:32:09.766Z,31.33
2022-11-12T23:34:40.173Z,31.05
2022-11-12T23:37:10.549Z,34.03
2022-11-12T23:39:40.835Z,36.10
2022-11-12T23:42:11.339Z,27.55
2022-11-12T23:44:41.824Z,29.70
2022-11-12T23:47:12.147Z,32.15
2022-11-12T23:49:42.549Z,29.07
2022-11-12T23:52:12.876Z,31.37
2022-11-12T23:54:43.276Z,30.20
2022-11-12T23:57:13.708Z,28.40
2022-11-12T23:59:44.091Z,25.85
